Time;durP1;ratioP1;P1;durP2;ratioP2;P2;SDS_P1;SDS_P2;PMS_P1;PMS_P2;Temp;Humidity;BMP_temperature;BMP_pressure;BME280_temperature;BME280_humidity;BME280_pressure;Samples;Min_cycle;Max_cycle;Signal;HPM_P1;HPM_P2
2021/12/06 00:00:16;;;;;;;76.68;37.35;;;3.60;99.90;;;;;;5034386;28;20033;-76
2021/12/06 00:02:43;;;;;;;73.00;35.53;;;3.60;99.90;;;;;;5035355;28;20048;-76
2021/12/06 00:05:10;;;;;;;74.47;35.60;;;3.60;99.90;;;;;;5019636;28;20033;-75
2021/12/06 00:07:38;;;;;;;69.95;35.05;;;3.50;99.90;;;;;;5034688;28;20478;-75
2021/12/06 00:10:05;;;;;;;77.00;36.30;;;3.50;99.90;;;;;;5016536;28;20093;-76
2021/12/06 00:12:30;;;;;;;74.45;36.50;;;3.50;99.90;;;;;;5034283;28;20021;-77
2021/12/06 00:14:56;;;;;;;68.28;33.28;;;3.50;99.90;;;;;;5033878;28;20021;-76
2021/12/06 00:17:22;;;;;;;69.53;35.05;;;3.40;99.90;;;;;;5033358;28;20022;-77
2021/12/06 00:19:47;;;;;;;69.05;34.17;;;3.40;99.90;;;;;;5017076;28;20066;-76
2021/12/06 00:22:22;;;;;;;74.22;35.85;;;3.50;99.90;;;;;;5035357;28;20030;-77
2021/12/06 00:24:47;;;;;;;75.88;36.70;;;3.60;99.90;;;;;;5017425;28;20060;-76
2021/12/06 00:27:13;;;;;;;78.95;37.35;;;3.50;99.90;;;;;;5033898;28;20030;-77
2021/12/06 00:29:38;;;;;;;72.38;34.80;;;3.60;99.90;;;;;;5034121;28;20025;-76
2021/12/06 00:32:04;;;;;;;74.45;35.45;;;3.50;99.90;;;;;;5033721;28;20097;-75
2021/12/06 00:34:34;;;;;;;78.30;36.70;;;3.60;99.90;;;;;;5034240;28;20051;-76
2021/12/06 00:37:16;;;;;;;70.43;34.28;;;3.50;99.90;;;;;;5016030;28;20048;-76
2021/12/06 00:39:45;;;;;;;76.20;35.25;;;3.50;99.90;;;;;;5034097;28;20021;-75
2021/12/06 00:42:10;;;;;;;84.65;36.92;;;3.40;99.90;;;;;;5034695;28;20029;-76
2021/12/06 00:44:37;;;;;;;75.43;35.17;;;3.40;99.90;;;;;;5039447;28;20040;-77
2021/12/06 00:47:03;;;;;;;75.25;35.72;;;3.40;99.90;;;;;;5041288;28;20018;-75
2021/12/06 00:49:28;;;;;;;71.90;36.35;;;3.30;99.90;;;;;;5047004;28;20026;-74
2021/12/06 00:51:54;;;;;;;76.03;35.80;;;3.30;99.90;;;;;;5046253;28;20026;-76
2021/12/06 00:54:19;;;;;;;74.78;36.25;;;3.30;99.90;;;;;;5035946;28;20017;-76
2021/12/06 00:56:45;;;;;;;77.25;37.35;;;3.30;99.90;;;;;;5042983;28;20094;-76
2021/12/06 00:59:11;;;;;;;71.68;36.13;;;3.30;99.90;;;;;;5041609;28;20128;-76
2021/12/06 01:01:36;;;;;;;67.57;34.45;;;3.30;99.90;;;;;;5034819;28;20121;-77
2021/12/06 01:04:03;;;;;;;77.53;36.72;;;3.30;99.90;;;;;;5033879;28;20032;-75
2021/12/06 01:06:31;;;;;;;76.00;35.85;;;3.30;99.90;;;;;;5033724;28;20076;-76
2021/12/06 01:08:57;;;;;;;73.15;36.58;;;3.30;99.90;;;;;;5033766;28;20025;-77
2021/12/06 01:11:22;;;;;;;74.78;37.40;;;3.40;99.90;;;;;;5016026;28;20025;-76
2021/12/06 01:13:48;;;;;;;75.57;35.83;;;3.40;99.90;;;;;;5033945;28;20056;-75
2021/12/06 01:16:16;;;;;;;73.75;35.78;;;3.40;99.90;;;;;;5033966;28;20092;-77
2021/12/06 01:18:42;;;;;;;68.60;35.60;;;3.50;99.90;;;;;;5033575;28;20463;-76
2021/12/06 01:21:24;;;;;;;73.00;36.35;;;3.50;99.90;;;;;;5033180;28;20033;-76
2021/12/06 01:23:55;;;;;;;73.43;35.42;;;3.50;99.90;;;;;;5041141;28;20037;-75
2021/12/06 01:39:36;;;;;;;71.75;36.67;;;3.60;99.90;;;;;;5034173;28;20095;-76
2021/12/06 01:42:05;;;;;;;80.30;36.45;;;3.60;99.90;;;;;;5036393;28;20025;-75
2021/12/06 01:44:34;;;;;;;74.85;34.78;;;3.60;99.90;;;;;;5038609;28;20509;-76
2021/12/06 01:47:10;;;;;;;70.68;35.83;;;3.60;99.90;;;;;;5039339;28;20017;-76
2021/12/06 01:49:39;;;;;;;70.63;35.13;;;3.60;99.90;;;;;;5046016;28;20221;-75
2021/12/06 01:52:10;;;;;;;68.63;34.10;;;3.60;99.90;;;;;;5039010;28;20080;-76
2021/12/06 01:54:36;;;;;;;67.90;34.00;;;3.60;99.90;;;;;;5040436;28;20017;-75
2021/12/06 01:57:04;;;;;;;75.80;36.47;;;3.60;99.90;;;;;;5042037;28;20029;-76
2021/12/06 01:59:29;;;;;;;67.10;35.50;;;3.60;99.90;;;;;;5049846;28;20083;-79
2021/12/06 02:01:56;;;;;;;70.72;34.30;;;3.50;99.90;;;;;;5042301;28;20025;-76
2021/12/06 02:04:23;;;;;;;64.40;33.05;;;3.50;99.90;;;;;;5048286;28;20029;-75
2021/12/06 02:06:49;;;;;;;71.65;34.75;;;3.50;99.90;;;;;;5060039;28;20033;-77
2021/12/06 02:09:16;;;;;;;68.30;34.42;;;3.50;99.90;;;;;;5041674;28;20115;-77
2021/12/06 02:11:44;;;;;;;75.20;35.92;;;3.50;99.90;;;;;;5062723;28;20022;-77
2021/12/06 02:14:30;;;;;;;66.88;33.72;;;3.60;99.90;;;;;;5057293;28;20167;-75
2021/12/06 02:17:14;;;;;;;71.85;34.88;;;3.50;99.90;;;;;;5057595;28;20083;-78
2021/12/06 02:19:46;;;;;;;68.23;34.87;;;3.60;99.90;;;;;;5058352;28;20021;-75
2021/12/06 02:22:16;;;;;;;72.53;36.60;;;3.60;99.90;;;;;;5057347;28;20025;-75
2021/12/06 02:24:42;;;;;;;70.57;35.40;;;3.60;99.90;;;;;;5056676;28;20028;-77
2021/12/06 02:27:09;;;;;;;75.50;35.35;;;3.60;99.90;;;;;;5056092;28;20390;-76
2021/12/06 02:29:37;;;;;;;68.90;34.90;;;3.60;99.90;;;;;;5056476;28;20114;-76
2021/12/06 02:32:09;;;;;;;71.80;33.92;;;3.60;99.90;;;;;;5056345;28;20454;-76
2021/12/06 02:34:36;;;;;;;66.25;33.17;;;3.50;99.90;;;;;;5056654;28;20474;-76
2021/12/06 02:37:02;;;;;;;69.03;34.40;;;3.50;99.90;;;;;;5037977;28;20474;-76
2021/12/06 02:39:29;;;;;;;66.75;33.30;;;3.40;99.90;;;;;;5060063;28;20072;-75
2021/12/06 02:41:57;;;;;;;66.72;33.58;;;3.50;99.90;;;;;;5040318;28;20035;-75
2021/12/06 02:44:23;;;;;;;67.35;33.45;;;3.40;99.90;;;;;;5056294;28;20060;-76
2021/12/06 02:46:50;;;;;;;71.72;34.17;;;3.40;99.90;;;;;;5055518;28;20085;-76
2021/12/06 02:49:16;;;;;;;67.93;33.92;;;3.30;99.90;;;;;;5038667;28;20082;-76
2021/12/06 02:51:42;;;;;;;66.55;34.10;;;3.30;99.90;;;;;;5038116;28;20353;-77
2021/12/06 02:54:09;;;;;;;69.32;35.22;;;3.20;99.90;;;;;;5055621;28;20503;-77
2021/12/06 02:56:51;;;;;;;70.93;35.05;;;3.00;99.90;;;;;;5037875;28;20035;-76
2021/12/06 02:59:17;;;;;;;69.70;34.08;;;3.10;99.90;;;;;;5055638;28;20612;-77
2021/12/06 03:01:45;;;;;;;69.78;36.03;;;3.10;99.90;;;;;;5055585;28;20104;-76
2021/12/06 03:04:11;;;;;;;68.38;32.45;;;3.00;99.90;;;;;;5037991;28;20146;-76
2021/12/06 03:06:40;;;;;;;75.72;34.97;;;3.00;99.90;;;;;;5055017;28;20059;-75
2021/12/06 03:09:18;;;;;;;69.70;34.17;;;2.90;99.90;;;;;;5037889;28;20083;-76
2021/12/06 03:11:54;;;;;;;67.32;33.70;;;2.90;99.90;;;;;;5055779;28;20017;-76
2021/12/06 03:14:26;;;;;;;72.30;35.75;;;2.80;99.90;;;;;;5037072;28;20021;-77
2021/12/06 03:16:54;;;;;;;69.90;34.75;;;2.80;99.90;;;;;;5055642;28;20095;-76
2021/12/06 03:19:19;;;;;;;72.90;34.65;;;2.70;99.90;;;;;;5061358;28;20032;-77
2021/12/06 03:21:45;;;;;;;67.38;34.85;;;2.70;99.90;;;;;;5059031;28;20021;-76
2021/12/06 03:24:11;;;;;;;71.07;35.15;;;2.70;99.90;;;;;;5055731;28;20029;-76
2021/12/06 03:26:38;;;;;;;68.93;34.80;;;2.70;99.90;;;;;;5055019;28;20032;-75
2021/12/06 03:29:04;;;;;;;71.13;34.88;;;2.70;99.90;;;;;;5055361;28;20048;-76
2021/12/06 03:31:30;;;;;;;69.05;34.17;;;2.70;99.90;;;;;;5055206;28;20028;-76
2021/12/06 03:33:57;;;;;;;64.50;33.40;;;2.60;99.90;;;;;;5058677;28;20032;-79
2021/12/06 03:36:27;;;;;;;65.65;34.05;;;2.60;99.90;;;;;;5062162;28;20056;-79
2021/12/06 03:38:55;;;;;;;68.40;34.60;;;2.60;99.90;;;;;;5062858;28;20500;-79
2021/12/06 03:41:22;;;;;;;60.22;31.95;;;2.60;99.90;;;;;;5063791;28;20059;-78
2021/12/06 03:43:49;;;;;;;63.85;31.88;;;2.60;99.90;;;;;;5045932;28;20029;-80
2021/12/06 03:46:18;;;;;;;64.63;32.40;;;2.50;99.90;;;;;;5049164;28;20032;-80
2021/12/06 03:48:44;;;;;;;65.97;33.00;;;2.60;99.90;;;;;;5073447;28;20025;-80
2021/12/06 03:51:10;;;;;;;64.10;31.85;;;2.50;99.90;;;;;;5046380;28;20344;-79
2021/12/06 03:53:36;;;;;;;74.10;33.78;;;2.50;99.90;;;;;;5063793;28;20047;-80
2021/12/06 03:56:03;;;;;;;65.93;32.05;;;2.50;99.90;;;;;;5043543;28;20029;-78
2021/12/06 03:58:28;;;;;;;67.93;33.40;;;2.40;99.90;;;;;;5047332;28;20557;-79
2021/12/06 04:00:55;;;;;;;69.90;33.90;;;2.50;99.90;;;;;;5073682;28;20009;-79
2021/12/06 04:03:23;;;;;;;68.45;34.13;;;2.50;99.90;;;;;;5076023;28;20021;-80
2021/12/06 04:05:49;;;;;;;68.38;31.92;;;2.40;99.90;;;;;;5061568;28;20032;-79
2021/12/06 04:08:15;;;;;;;64.00;32.80;;;2.40;99.90;;;;;;5057241;28;20078;-78
2021/12/06 04:10:42;;;;;;;67.45;33.35;;;2.30;99.90;;;;;;5062490;28;20017;-79
2021/12/06 04:13:09;;;;;;;65.95;31.73;;;2.30;99.90;;;;;;5075515;28;20021;-78
2021/12/06 04:15:37;;;;;;;63.63;31.52;;;2.30;99.90;;;;;;5070014;28;20509;-78
2021/12/06 04:18:03;;;;;;;70.03;33.20;;;2.30;99.90;;;;;;5038010;28;20029;-78
2021/12/06 04:20:30;;;;;;;61.65;31.35;;;2.30;99.90;;;;;;5055432;28;20021;-78
2021/12/06 04:22:57;;;;;;;71.95;33.95;;;2.30;99.90;;;;;;5057087;28;20028;-77
2021/12/06 04:25:23;;;;;;;73.32;33.15;;;2.40;99.90;;;;;;5056522;28;20507;-80
2021/12/06 04:27:54;;;;;;;62.03;31.15;;;2.30;99.90;;;;;;5056519;28;20082;-78
2021/12/06 04:30:22;;;;;;;69.32;31.98;;;2.30;99.90;;;;;;5061134;28;20097;-78
2021/12/06 04:32:49;;;;;;;62.55;30.95;;;2.30;99.90;;;;;;5058719;28;20017;-79
2021/12/06 04:35:14;;;;;;;62.78;31.73;;;2.30;99.90;;;;;;5063737;28;20025;-80
2021/12/06 04:37:40;;;;;;;63.92;32.30;;;2.30;99.90;;;;;;5070121;28;20025;-79
2021/12/06 04:40:08;;;;;;;65.32;33.78;;;2.20;99.90;;;;;;5044516;28;20074;-79
2021/12/06 04:42:34;;;;;;;68.30;32.80;;;2.20;99.90;;;;;;5059407;28;20025;-78
2021/12/06 04:45:00;;;;;;;73.70;33.75;;;2.20;99.90;;;;;;5061718;28;20138;-78
2021/12/06 04:47:25;;;;;;;65.03;31.75;;;2.10;99.90;;;;;;5050519;28;20033;-80
2021/12/06 04:49:51;;;;;;;66.75;33.10;;;2.10;99.90;;;;;;5058057;28;20021;-80
2021/12/06 04:52:18;;;;;;;65.85;32.75;;;2.10;99.90;;;;;;5057442;28;20033;-78
2021/12/06 04:54:48;;;;;;;62.80;32.13;;;2.20;99.90;;;;;;5055952;28;20025;-77
2021/12/06 04:57:28;;;;;;;95.30;47.00;;;2.30;99.90;;;;;;5056507;28;20386;-78
2021/12/06 05:00:14;;;;;;;67.78;33.67;;;2.30;99.90;;;;;;5040962;28;20028;-78
2021/12/06 05:02:40;;;;;;;65.80;31.38;;;2.40;99.90;;;;;;5073009;28;20021;-78
2021/12/06 05:05:10;;;;;;;64.68;31.67;;;2.40;99.90;;;;;;5055188;28;20101;-78
2021/12/06 05:07:42;;;;;;;73.93;33.28;;;2.50;99.90;;;;;;5059122;28;20022;-78
2021/12/06 05:10:11;;;;;;;65.20;33.10;;;2.40;99.90;;;;;;5040925;28;20021;-79
2021/12/06 05:12:37;;;;;;;67.10;32.92;;;2.50;99.90;;;;;;5059148;28;20029;-78
2021/12/06 05:15:04;;;;;;;69.10;32.45;;;2.50;99.90;;;;;;5060589;28;20021;-78
2021/12/06 05:17:30;;;;;;;65.78;32.15;;;2.50;99.90;;;;;;5059178;28;20123;-78
2021/12/06 05:19:55;;;;;;;64.88;31.67;;;2.60;99.90;;;;;;5060987;28;20122;-78
2021/12/06 05:22:21;;;;;;;63.50;31.02;;;2.50;99.90;;;;;;5062233;28;20048;-78
2021/12/06 05:24:47;;;;;;;60.20;30.60;;;2.60;99.90;;;;;;5061311;28;20025;-78
2021/12/06 05:27:13;;;;;;;64.80;31.02;;;2.60;99.90;;;;;;5043312;28;20043;-79
2021/12/06 05:29:44;;;;;;;60.47;29.17;;;2.60;99.90;;;;;;5062866;28;20079;-78
2021/12/06 05:32:10;;;;;;;69.38;32.20;;;2.60;99.90;;;;;;5060634;28;20105;-77
2021/12/06 05:34:39;;;;;;;65.35;29.45;;;2.60;99.90;;;;;;5060059;28;20443;-76
2021/12/06 05:37:08;;;;;;;58.90;29.60;;;2.60;99.90;;;;;;5061142;28;20045;-76
2021/12/06 05:39:33;;;;;;;69.32;32.83;;;2.60;99.90;;;;;;5061216;28;20028;-77
2021/12/06 05:42:03;;;;;;;61.80;29.30;;;2.60;99.90;;;;;;5040952;28;20367;-78
2021/12/06 05:44:30;;;;;;;69.28;29.67;;;2.50;99.90;;;;;;5064098;28;20027;-77
2021/12/06 05:46:56;;;;;;;54.03;27.45;;;2.60;99.90;;;;;;5046762;28;20029;-78
2021/12/06 05:49:22;;;;;;;64.75;28.42;;;2.60;99.90;;;;;;5071629;28;20021;-79
2021/12/06 05:51:48;;;;;;;56.80;27.60;;;2.60;99.90;;;;;;5063006;28;20116;-78
2021/12/06 05:54:13;;;;;;;57.65;26.98;;;2.60;99.90;;;;;;5060673;28;20513;-78
2021/12/06 05:56:39;;;;;;;56.10;27.55;;;2.60;99.90;;;;;;5060361;28;20036;-78
2021/12/06 05:59:05;;;;;;;58.70;28.77;;;2.50;99.90;;;;;;5060533;28;20079;-78
2021/12/06 06:01:31;;;;;;;59.13;28.83;;;2.60;99.90;;;;;;5042644;28;20025;-78
2021/12/06 06:04:01;;;;;;;62.10;28.08;;;2.50;99.90;;;;;;5060689;28;20035;-79
2021/12/06 06:06:32;;;;;;;54.85;27.67;;;2.50;99.90;;;;;;5064271;28;20071;-79
2021/12/06 06:08:58;;;;;;;52.80;25.90;;;2.50;99.90;;;;;;5063464;28;20072;-79
2021/12/06 06:11:24;;;;;;;49.63;26.23;;;2.40;99.90;;;;;;5061646;28;20017;-78
2021/12/06 06:13:51;;;;;;;57.22;26.83;;;2.40;99.90;;;;;;5064883;28;20051;-80
2021/12/06 06:16:20;;;;;;;47.78;25.40;;;2.40;99.90;;;;;;5067244;28;20036;-78
2021/12/06 06:18:46;;;;;;;52.70;25.63;;;2.40;99.90;;;;;;5067074;28;20025;-79
2021/12/06 06:21:12;;;;;;;54.78;27.00;;;2.40;99.90;;;;;;5043417;28;20028;-78
2021/12/06 06:23:38;;;;;;;49.28;25.20;;;2.40;99.90;;;;;;5059641;28;20021;-78
2021/12/06 06:26:04;;;;;;;54.53;26.90;;;2.40;99.90;;;;;;5058369;28;20037;-79
2021/12/06 06:28:29;;;;;;;54.35;25.35;;;2.40;99.90;;;;;;5059316;28;20036;-78
2021/12/06 06:30:55;;;;;;;51.20;24.95;;;2.40;99.90;;;;;;5061779;28;20025;-78
2021/12/06 06:33:21;;;;;;;53.20;27.02;;;2.40;99.90;;;;;;5041955;28;20025;-78
2021/12/06 06:35:47;;;;;;;46.58;24.08;;;2.40;99.90;;;;;;5045373;28;20029;-79
2021/12/06 06:38:13;;;;;;;50.65;24.27;;;2.40;99.90;;;;;;5066374;28;20040;-80
2021/12/06 06:40:39;;;;;;;47.03;24.60;;;2.50;99.90;;;;;;5058001;28;20188;-79
2021/12/06 06:43:04;;;;;;;45.58;24.50;;;2.40;99.90;;;;;;5063409;28;20048;-79
2021/12/06 06:45:30;;;;;;;50.80;23.45;;;2.40;99.90;;;;;;5060339;28;20032;-78
2021/12/06 06:47:56;;;;;;;42.83;21.75;;;2.50;99.90;;;;;;5057700;28;20032;-78
2021/12/06 06:50:23;;;;;;;44.40;23.00;;;2.50;99.90;;;;;;5041607;28;20031;-79
2021/12/06 06:52:50;;;;;;;46.17;21.23;;;2.50;99.90;;;;;;5042396;28;20389;-78
2021/12/06 06:55:17;;;;;;;44.88;21.92;;;2.50;99.90;;;;;;5042570;28;20502;-78
2021/12/06 06:57:44;;;;;;;41.40;21.38;;;2.50;99.90;;;;;;5041649;28;20068;-80
2021/12/06 07:00:13;;;;;;;41.90;20.83;;;2.50;99.90;;;;;;5060070;28;20466;-79
2021/12/06 07:02:39;;;;;;;39.72;20.85;;;2.50;99.90;;;;;;5041462;28;20059;-79
2021/12/06 07:05:06;;;;;;;44.25;24.05;;;2.50;99.90;;;;;;5059960;28;20021;-78
2021/12/06 07:07:32;;;;;;;46.70;22.35;;;2.50;99.90;;;;;;5059025;28;20067;-79
2021/12/06 07:09:58;;;;;;;43.58;22.75;;;2.60;99.90;;;;;;5062356;28;20029;-80
2021/12/06 07:12:23;;;;;;;41.63;22.00;;;2.60;99.90;;;;;;5043408;28;20044;-78
2021/12/06 07:14:49;;;;;;;35.78;20.42;;;2.50;99.90;;;;;;5060181;28;20021;-79
2021/12/06 07:17:15;;;;;;;37.65;20.15;;;2.50;99.90;;;;;;5074017;28;20032;-78
2021/12/06 07:19:42;;;;;;;37.75;20.40;;;2.50;99.90;;;;;;5067753;28;20059;-79
2021/12/06 07:22:08;;;;;;;39.67;21.17;;;2.50;99.90;;;;;;5059906;28;20043;-78
2021/12/06 07:24:33;;;;;;;35.25;19.88;;;2.40;99.90;;;;;;5060327;28;20032;-78
2021/12/06 07:26:59;;;;;;;35.80;20.40;;;2.40;99.90;;;;;;5067685;28;20039;-77
2021/12/06 07:29:25;;;;;;;38.90;21.00;;;2.40;99.90;;;;;;5053684;28;20051;-76
2021/12/06 07:31:51;;;;;;;36.63;20.58;;;2.50;99.90;;;;;;5063747;28;20021;-78
2021/12/06 07:34:17;;;;;;;38.08;20.13;;;2.40;99.90;;;;;;5058540;28;20032;-78
2021/12/06 07:36:44;;;;;;;38.25;19.55;;;2.40;99.90;;;;;;5042134;28;20025;-77
2021/12/06 07:39:10;;;;;;;38.75;20.80;;;2.50;99.90;;;;;;5043890;28;20273;-79
2021/12/06 07:41:36;;;;;;;38.55;20.42;;;2.50;99.90;;;;;;5064670;28;20090;-79
2021/12/06 07:44:03;;;;;;;38.42;19.15;;;2.50;99.90;;;;;;5064267;28;20057;-80
2021/12/06 07:46:29;;;;;;;41.83;21.80;;;2.60;99.90;;;;;;5060088;28;20044;-78
2021/12/06 07:48:54;;;;;;;55.17;23.77;;;2.60;99.90;;;;;;5062290;28;20025;-80
2021/12/06 07:51:25;;;;;;;46.45;23.88;;;2.60;99.90;;;;;;5046212;28;20017;-75
2021/12/06 07:53:54;;;;;;;44.75;20.63;;;2.60;99.90;;;;;;5054253;28;20018;-78
2021/12/06 07:56:20;;;;;;;37.85;20.92;;;2.60;99.90;;;;;;5052976;28;20043;-79
2021/12/06 07:58:47;;;;;;;35.67;19.80;;;2.60;99.90;;;;;;5043721;28;20056;-79
2021/12/06 08:01:13;;;;;;;41.47;19.60;;;2.60;99.90;;;;;;5041749;28;20054;-78
2021/12/06 08:03:41;;;;;;;34.70;17.90;;;2.70;99.90;;;;;;5059527;28;20452;-78
2021/12/06 08:06:08;;;;;;;37.75;19.45;;;2.80;99.90;;;;;;5060162;28;20041;-79
2021/12/06 08:08:35;;;;;;;32.78;18.05;;;2.80;99.90;;;;;;5040755;28;20053;-77
2021/12/06 08:11:15;;;;;;;36.72;17.88;;;2.80;99.90;;;;;;5039783;28;20061;-78
2021/12/06 08:13:50;;;;;;;35.47;19.30;;;2.90;99.90;;;;;;5058149;28;20024;-78
2021/12/06 08:16:19;;;;;;;32.42;18.08;;;2.90;99.90;;;;;;5059236;28;20485;-79
2021/12/06 08:18:46;;;;;;;35.47;19.15;;;3.10;99.90;;;;;;5042616;28;20120;-78
2021/12/06 08:21:14;;;;;;;82.15;39.13;;;3.10;99.90;;;;;;5026102;28;20040;-79
2021/12/06 08:23:40;;;;;;;30.58;17.52;;;3.20;99.90;;;;;;5058386;28;20028;-79
2021/12/06 08:26:09;;;;;;;33.10;17.75;;;3.20;99.90;;;;;;5057415;28;20165;-77
2021/12/06 08:28:36;;;;;;;36.92;20.90;;;3.10;99.90;;;;;;5062645;28;20025;-80
2021/12/06 08:31:04;;;;;;;31.13;18.63;;;3.00;99.90;;;;;;5063698;28;20017;-78
2021/12/06 08:33:31;;;;;;;40.10;19.08;;;3.00;99.90;;;;;;5059796;28;20044;-78
2021/12/06 08:35:57;;;;;;;30.58;17.40;;;3.00;99.90;;;;;;5042173;28;20025;-78
2021/12/06 08:38:26;;;;;;;33.13;18.17;;;3.10;99.90;;;;;;5058180;28;20036;-78
2021/12/06 08:40:52;;;;;;;28.98;17.17;;;3.10;99.90;;;;;;5057179;28;20029;-79
2021/12/06 08:43:19;;;;;;;30.70;18.38;;;3.10;99.90;;;;;;5039348;28;20025;-78
2021/12/06 08:45:57;;;;;;;34.13;16.70;;;3.20;99.90;;;;;;5056786;28;20087;-80
2021/12/06 08:48:26;;;;;;;33.22;17.30;;;3.10;99.90;;;;;;5058119;28;20540;-79
2021/12/06 08:50:57;;;;;;;33.38;18.10;;;3.10;99.90;;;;;;5040279;28;20047;-77
2021/12/06 08:53:23;;;;;;;31.77;17.77;;;3.10;99.90;;;;;;5057301;28;20385;-78
2021/12/06 08:55:50;;;;;;;38.85;18.33;;;3.00;99.90;;;;;;5058359;28;20029;-81
2021/12/06 08:58:16;;;;;;;34.22;17.75;;;3.00;99.90;;;;;;5040647;28;20055;-79
2021/12/06 09:00:43;;;;;;;33.65;16.85;;;3.00;99.90;;;;;;5070827;22;20038;-77
2021/12/06 09:03:08;;;;;;;34.80;18.17;;;3.00;99.90;;;;;;5014268;28;20093;-76
2021/12/06 09:05:40;;;;;;;32.55;17.17;;;3.00;99.90;;;;;;5010700;28;20026;-76
2021/12/06 09:08:06;;;;;;;29.73;17.38;;;3.00;99.90;;;;;;5011591;28;20030;-76
2021/12/06 09:10:33;;;;;;;35.72;18.63;;;3.00;99.90;;;;;;5010485;28;20149;-78
2021/12/06 09:12:59;;;;;;;33.78;17.23;;;3.10;99.90;;;;;;5010660;28;20034;-77
2021/12/06 09:15:25;;;;;;;32.75;16.85;;;3.10;99.90;;;;;;5011430;28;20030;-76
2021/12/06 09:17:52;;;;;;;31.75;17.92;;;3.10;99.90;;;;;;5011293;28;20382;-76
2021/12/06 09:20:20;;;;;;;28.10;16.63;;;3.20;99.90;;;;;;5012396;28;20073;-76
2021/12/06 09:22:47;;;;;;;31.92;17.27;;;3.40;99.90;;;;;;5012473;28;20022;-76
2021/12/06 09:25:15;;;;;;;30.88;16.55;;;3.40;99.90;;;;;;5011113;28;20469;-77
2021/12/06 09:27:42;;;;;;;33.97;17.13;;;3.50;99.90;;;;;;5012164;28;20058;-76
2021/12/06 09:30:10;;;;;;;61.78;24.30;;;3.60;99.90;;;;;;5011898;28;20057;-77
2021/12/06 09:32:36;;;;;;;138.30;45.67;;;3.60;99.90;;;;;;5014236;28;20018;-76
2021/12/06 09:35:03;;;;;;;41.38;18.90;;;3.80;99.90;;;;;;5020847;28;20022;-77
2021/12/06 09:37:29;;;;;;;55.67;21.33;;;3.90;99.90;;;;;;5014792;28;20022;-78
2021/12/06 09:39:56;;;;;;;44.88;21.75;;;4.10;99.90;;;;;;5012394;28;20479;-75
2021/12/06 09:42:22;;;;;;;57.60;22.42;;;4.30;99.90;;;;;;5012478;28;20077;-76
2021/12/06 09:44:48;;;;;;;28.73;15.73;;;4.40;99.90;;;;;;5013495;28;20069;-75
2021/12/06 09:47:14;;;;;;;34.03;19.30;;;4.50;99.90;;;;;;5012081;28;20033;-76
2021/12/06 09:49:40;;;;;;;40.90;19.88;;;4.50;99.90;;;;;;5012970;28;20022;-76
2021/12/06 09:52:07;;;;;;;33.60;16.55;;;4.50;99.90;;;;;;5012749;28;20452;-76
2021/12/06 09:54:37;;;;;;;31.52;16.33;;;4.40;99.90;;;;;;5011848;28;20018;-74
2021/12/06 09:57:05;;;;;;;32.92;17.05;;;4.50;99.90;;;;;;5010411;28;20061;-75
2021/12/06 09:59:32;;;;;;;33.25;16.10;;;4.40;99.90;;;;;;5012624;28;20033;-75
2021/12/06 10:02:14;;;;;;;30.33;15.80;;;4.50;99.90;;;;;;5012843;28;20106;-78
2021/12/06 10:04:45;;;;;;;30.27;16.00;;;4.50;99.90;;;;;;5013464;28;20032;-76
2021/12/06 10:07:11;;;;;;;27.23;15.13;;;4.60;99.90;;;;;;5016488;28;20657;-75
2021/12/06 10:09:39;;;;;;;30.02;16.25;;;4.60;99.90;;;;;;5016143;28;20044;-76
2021/12/06 10:12:06;;;;;;;27.92;15.57;;;4.50;99.90;;;;;;5015918;28;20167;-76
2021/12/06 10:14:32;;;;;;;29.88;16.40;;;4.50;99.90;;;;;;5016141;28;20026;-76
2021/12/06 10:16:58;;;;;;;28.98;16.17;;;4.50;99.90;;;;;;5015666;28;20172;-77
2021/12/06 10:19:25;;;;;;;28.40;14.98;;;4.60;99.90;;;;;;5014259;28;20491;-76
2021/12/06 10:21:52;;;;;;;29.05;16.17;;;4.70;99.90;;;;;;5016719;28;20371;-76
2021/12/06 10:24:22;;;;;;;31.63;16.95;;;4.70;99.90;;;;;;5015962;28;20026;-76
2021/12/06 10:26:48;;;;;;;39.13;17.70;;;4.70;99.90;;;;;;5014148;28;20044;-76
2021/12/06 10:29:22;;;;;;;31.35;17.33;;;4.60;99.90;;;;;;5016795;28;20064;-77
2021/12/06 10:31:54;;;;;;;30.48;14.15;;;4.50;99.90;;;;;;5015764;28;20022;-76
2021/12/06 10:34:24;;;;;;;46.17;21.35;;;4.30;99.90;;;;;;5014354;28;20062;-77
2021/12/06 10:36:51;;;;;;;39.15;20.55;;;4.20;99.90;;;;;;5015105;28;20022;-76
2021/12/06 10:39:17;;;;;;;35.63;19.70;;;4.10;99.90;;;;;;5016253;28;20037;-74
2021/12/06 10:41:47;;;;;;;35.63;19.05;;;4.20;99.90;;;;;;5018137;28;20375;-74
2021/12/06 10:44:14;;;;;;;41.58;19.90;;;4.20;99.90;;;;;;5017030;28;20091;-75
2021/12/06 10:46:44;;;;;;;40.70;19.50;;;4.30;99.90;;;;;;5022063;28;20026;-76
2021/12/06 10:49:14;;;;;;;40.28;20.02;;;4.30;99.90;;;;;;5028511;28;20022;-76
2021/12/06 10:51:40;;;;;;;43.67;22.23;;;4.40;99.90;;;;;;5029612;28;20343;-76
2021/12/06 10:54:19;;;;;;;41.05;21.55;;;4.30;99.90;;;;;;5029834;28;20022;-77
2021/12/06 10:56:47;;;;;;;46.88;22.40;;;4.20;99.90;;;;;;5029722;28;20026;-75
2021/12/06 10:59:23;;;;;;;52.25;26.27;;;4.10;99.90;;;;;;5031038;28;20030;-76
2021/12/06 11:01:53;;;;;;;46.05;23.17;;;4.10;99.90;;;;;;5033828;28;20018;-77
2021/12/06 11:04:26;;;;;;;44.63;23.77;;;4.10;99.90;;;;;;5035198;28;20053;-77
2021/12/06 11:06:58;;;;;;;44.15;23.02;;;4.30;99.90;;;;;;5036741;28;20045;-76
2021/12/06 11:09:28;;;;;;;40.08;21.30;;;4.30;99.90;;;;;;5034319;28;20029;-76
2021/12/06 11:11:58;;;;;;;52.78;25.08;;;4.50;99.90;;;;;;5016076;28;20025;-77
2021/12/06 11:14:30;;;;;;;46.75;24.13;;;4.60;99.90;;;;;;5015931;28;20028;-75
2021/12/06 11:17:02;;;;;;;52.15;25.25;;;4.70;99.90;;;;;;5014996;28;20025;-76
2021/12/06 11:19:29;;;;;;;58.83;28.13;;;4.60;99.90;;;;;;5015085;28;20033;-74
2021/12/06 11:22:01;;;;;;;48.95;25.90;;;4.60;99.90;;;;;;5015105;28;20053;-77
2021/12/06 11:24:29;;;;;;;50.47;26.05;;;4.60;99.90;;;;;;5015173;28;20478;-77
2021/12/06 11:27:00;;;;;;;53.53;26.00;;;4.40;99.90;;;;;;5014862;28;20030;-76
2021/12/06 11:29:31;;;;;;;49.28;25.98;;;4.50;99.90;;;;;;5020418;28;20033;-76
2021/12/06 11:32:08;;;;;;;49.22;27.00;;;4.50;99.90;;;;;;5020430;28;20109;-76
2021/12/06 11:34:47;;;;;;;48.35;25.88;;;4.60;99.90;;;;;;5016431;28;20018;-76
2021/12/06 11:37:20;;;;;;;48.92;26.40;;;4.60;99.90;;;;;;5013470;28;20037;-77
2021/12/06 11:39:49;;;;;;;52.88;28.65;;;4.40;99.90;;;;;;5014231;28;20030;-75
2021/12/06 11:42:15;;;;;;;51.58;27.35;;;4.30;99.90;;;;;;5013927;28;20026;-77
2021/12/06 11:44:43;;;;;;;53.00;28.33;;;4.10;99.90;;;;;;5012975;28;20422;-77
2021/12/06 11:47:14;;;;;;;57.80;29.50;;;3.90;99.90;;;;;;5013636;28;20530;-75
2021/12/06 11:49:55;;;;;;;61.72;29.98;;;3.70;99.90;;;;;;5015913;28;20497;-78
2021/12/06 11:52:25;;;;;;;62.38;31.02;;;3.70;99.90;;;;;;5014349;28;20026;-78
2021/12/06 11:55:08;;;;;;;69.75;33.67;;;3.60;99.90;;;;;;5013526;28;20026;-78
2021/12/06 11:57:40;;;;;;;61.38;33.08;;;3.50;99.90;;;;;;5016186;28;20026;-76
2021/12/06 12:00:12;;;;;;;59.78;32.42;;;3.40;99.90;;;;;;5015959;28;20030;-76
2021/12/06 12:02:46;;;;;;;62.08;31.73;;;3.40;99.90;;;;;;5021404;28;20040;-77
2021/12/06 12:05:17;;;;;;;49.57;25.07;;;3.40;99.90;;;;;;5014517;28;20372;-76
2021/12/06 12:07:58;;;;;;;66.95;34.00;;;3.30;99.90;;;;;;5014049;28;20390;-75
2021/12/06 12:10:42;;;;;;;69.63;35.42;;;3.40;99.90;;;;;;5012885;28;20028;-75
2021/12/06 12:13:11;;;;;;;69.05;35.20;;;3.40;99.90;;;;;;5014909;28;20633;-76
2021/12/06 12:15:37;;;;;;;79.43;38.38;;;3.50;99.90;;;;;;5015430;28;20025;-77
2021/12/06 12:18:04;;;;;;;77.65;39.25;;;3.50;99.90;;;;;;5017878;28;20494;-78
2021/12/06 12:20:30;;;;;;;77.63;37.30;;;3.50;99.90;;;;;;5018899;28;20511;-75
2021/12/06 12:23:02;;;;;;;79.55;38.53;;;3.60;99.90;;;;;;5019278;28;20059;-75
2021/12/06 12:25:33;;;;;;;76.07;36.72;;;3.60;99.90;;;;;;5014338;28;20030;-75
2021/12/06 12:28:22;;;;;;;72.00;36.47;;;3.60;99.90;;;;;;5013082;28;20026;-76
2021/12/06 12:30:50;;;;;;;77.10;36.90;;;3.60;99.90;;;;;;5013430;28;20064;-76
2021/12/06 12:33:19;;;;;;;72.60;37.03;;;3.60;99.90;;;;;;5013965;28;20033;-75
2021/12/06 12:35:49;;;;;;;79.90;37.22;;;3.60;99.90;;;;;;5014899;28;20022;-77
2021/12/06 12:38:28;;;;;;;74.90;37.67;;;3.50;99.90;;;;;;5014261;28;20133;-76
2021/12/06 12:41:01;;;;;;;72.85;36.38;;;3.50;99.90;;;;;;5018417;28;20054;-75
2021/12/06 12:43:37;;;;;;;75.93;36.30;;;3.50;99.90;;;;;;5017282;28;20049;-78
2021/12/06 12:46:10;;;;;;;76.05;38.38;;;3.40;99.90;;;;;;5013938;28;20026;-73
2021/12/06 12:48:50;;;;;;;61.87;30.03;;;3.40;99.90;;;;;;5014524;28;20038;-75
2021/12/06 12:51:19;;;;;;;85.72;38.47;;;3.40;99.90;;;;;;5013716;28;20049;-76
2021/12/06 12:53:56;;;;;;;80.40;38.65;;;3.20;99.90;;;;;;5013536;28;20034;-77